sensor_id;sensor_type;location;lat;lon;timestamp;temperature;humidity
5278;DHT22;2662;51.194;6.614;2024-01-30T00:00:33;9.70;99.90
5278;DHT22;2662;51.194;6.614;2024-01-30T00:03:00;9.60;99.90
5278;DHT22;2662;51.194;6.614;2024-01-30T00:05:27;9.60;99.90
5278;DHT22;2662;51.194;6.614;2024-01-30T00:07:53;9.60;99.90
5278;DHT22;2662;51.194;6.614;2024-01-30T00:10:22;9.60;99.90
5278;DHT22;2662;51.194;6.614;2024-01-30T00:12:50;9.60;99.90
5278;DHT22;2662;51.194;6.614;2024-01-30T00:15:18;9.60;99.90
5278;DHT22;2662;51.194;6.614;2024-01-30T00:17:44;9.60;99.90
5278;DHT22;2662;51.194;6.614;2024-01-30T00:20:11;9.60;99.90
5278;DHT22;2662;51.194;6.614;2024-01-30T00:22:38;9.50;99.90
5278;DHT22;2662;51.194;6.614;2024-01-30T00:25:05;9.50;99.90
5278;DHT22;2662;51.194;6.614;2024-01-30T00:27:34;9.50;99.90
5278;DHT22;2662;51.194;6.614;2024-01-30T00:30:00;9.50;99.90
5278;DHT22;2662;51.194;6.614;2024-01-30T00:32:27;9.40;99.90
5278;DHT22;2662;51.194;6.614;2024-01-30T00:34:54;9.40;99.90
5278;DHT22;2662;51.194;6.614;2024-01-30T00:37:21;9.40;99.90
5278;DHT22;2662;51.194;6.614;2024-01-30T00:39:48;9.40;99.90
5278;DHT22;2662;51.194;6.614;2024-01-30T00:42:15;9.30;99.90
5278;DHT22;2662;51.194;6.614;2024-01-30T00:44:46;9.20;99.90
5278;DHT22;2662;51.194;6.614;2024-01-30T00:47:15;9.20;99.90
5278;DHT22;2662;51.194;6.614;2024-01-30T00:49:42;9.20;99.90
5278;DHT22;2662;51.194;6.614;2024-01-30T00:52:10;9.20;99.90
5278;DHT22;2662;51.194;6.614;2024-01-30T00:54:37;9.10;99.90
5278;DHT22;2662;51.194;6.614;2024-01-30T00:57:05;9.10;99.90
5278;DHT22;2662;51.194;6.614;2024-01-30T00:59:31;9.10;99.90
5278;DHT22;2662;51.194;6.614;2024-01-30T01:02:00;9.00;99.90
5278;DHT22;2662;51.194;6.614;2024-01-30T01:04:28;9.00;99.90
5278;DHT22;2662;51.194;6.614;2024-01-30T01:06:55;9.00;99.90
5278;DHT22;2662;51.194;6.614;2024-01-30T01:09:23;9.00;99.90
5278;DHT22;2662;51.194;6.614;2024-01-30T01:11:52;9.00;99.90
5278;DHT22;2662;51.194;6.614;2024-01-30T01:14:19;9.00;99.90
5278;DHT22;2662;51.194;6.614;2024-01-30T01:16:47;9.00;99.90
5278;DHT22;2662;51.194;6.614;2024-01-30T01:19:15;9.00;99.90
5278;DHT22;2662;51.194;6.614;2024-01-30T01:21:42;9.00;99.90
5278;DHT22;2662;51.194;6.614;2024-01-30T01:24:09;8.90;99.90
5278;DHT22;2662;51.194;6.614;2024-01-30T01:26:36;8.90;99.90
5278;DHT22;2662;51.194;6.614;2024-01-30T01:29:03;8.90;99.90
5278;DHT22;2662;51.194;6.614;2024-01-30T01:31:35;8.80;99.90
5278;DHT22;2662;51.194;6.614;2024-01-30T01:34:05;8.80;99.90
5278;DHT22;2662;51.194;6.614;2024-01-30T01:36:35;8.70;99.90
5278;DHT22;2662;51.194;6.614;2024-01-30T01:39:01;8.70;99.90
5278;DHT22;2662;51.194;6.614;2024-01-30T01:41:30;8.70;99.90
5278;DHT22;2662;51.194;6.614;2024-01-30T01:43:57;8.70;99.90
5278;DHT22;2662;51.194;6.614;2024-01-30T01:46:26;8.60;99.90
5278;DHT22;2662;51.194;6.614;2024-01-30T01:48:55;8.60;99.90
5278;DHT22;2662;51.194;6.614;2024-01-30T01:51:22;8.60;99.90
5278;DHT22;2662;51.194;6.614;2024-01-30T01:53:51;8.60;99.90
5278;DHT22;2662;51.194;6.614;2024-01-30T01:56:17;8.60;99.90
5278;DHT22;2662;51.194;6.614;2024-01-30T01:58:46;8.60;99.90
5278;DHT22;2662;51.194;6.614;2024-01-30T02:01:14;8.60;99.90
5278;DHT22;2662;51.194;6.614;2024-01-30T02:03:42;8.60;99.90
5278;DHT22;2662;51.194;6.614;2024-01-30T02:06:09;8.60;99.90
5278;DHT22;2662;51.194;6.614;2024-01-30T02:08:37;8.60;99.90
5278;DHT22;2662;51.194;6.614;2024-01-30T02:11:07;8.70;99.90
5278;DHT22;2662;51.194;6.614;2024-01-30T02:13:34;8.70;99.90
5278;DHT22;2662;51.194;6.614;2024-01-30T02:16:01;8.60;99.90
5278;DHT22;2662;51.194;6.614;2024-01-30T02:18:29;8.60;99.90
5278;DHT22;2662;51.194;6.614;2024-01-30T02:20:58;8.70;99.90
5278;DHT22;2662;51.194;6.614;2024-01-30T02:23:28;8.60;99.90
5278;DHT22;2662;51.194;6.614;2024-01-30T02:25:56;8.60;99.90
5278;DHT22;2662;51.194;6.614;2024-01-30T02:28:23;8.70;99.90
5278;DHT22;2662;51.194;6.614;2024-01-30T02:30:51;8.70;99.90
5278;DHT22;2662;51.194;6.614;2024-01-30T02:33:17;8.70;99.90
5278;DHT22;2662;51.194;6.614;2024-01-30T02:35:44;8.70;99.90
5278;DHT22;2662;51.194;6.614;2024-01-30T02:38:12;8.70;99.90
5278;DHT22;2662;51.194;6.614;2024-01-30T02:40:41;8.70;99.90
5278;DHT22;2662;51.194;6.614;2024-01-30T02:43:07;8.70;99.90
5278;DHT22;2662;51.194;6.614;2024-01-30T02:45:34;8.70;99.90
5278;DHT22;2662;51.194;6.614;2024-01-30T02:48:01;8.70;99.90
5278;DHT22;2662;51.194;6.614;2024-01-30T02:50:29;8.70;99.90
5278;DHT22;2662;51.194;6.614;2024-01-30T02:52:56;8.60;99.90
5278;DHT22;2662;51.194;6.614;2024-01-30T02:55:22;8.60;99.90
5278;DHT22;2662;51.194;6.614;2024-01-30T02:57:51;8.60;99.90
5278;DHT22;2662;51.194;6.614;2024-01-30T03:00:19;8.60;99.90
5278;DHT22;2662;51.194;6.614;2024-01-30T03:02:46;8.60;99.90
5278;DHT22;2662;51.194;6.614;2024-01-30T03:05:13;8.70;99.90
5278;DHT22;2662;51.194;6.614;2024-01-30T03:07:39;8.70;99.90
5278;DHT22;2662;51.194;6.614;2024-01-30T03:10:07;8.70;99.90
5278;DHT22;2662;51.194;6.614;2024-01-30T03:12:34;8.70;99.90
5278;DHT22;2662;51.194;6.614;2024-01-30T03:15:03;8.60;99.90
5278;DHT22;2662;51.194;6.614;2024-01-30T03:17:29;8.60;99.90
5278;DHT22;2662;51.194;6.614;2024-01-30T03:19:58;8.60;99.90
5278;DHT22;2662;51.194;6.614;2024-01-30T03:22:24;8.60;99.90
5278;DHT22;2662;51.194;6.614;2024-01-30T03:24:51;8.60;99.90
5278;DHT22;2662;51.194;6.614;2024-01-30T03:27:18;8.70;99.90
5278;DHT22;2662;51.194;6.614;2024-01-30T03:29:45;8.60;99.90
5278;DHT22;2662;51.194;6.614;2024-01-30T03:32:13;8.70;99.90
5278;DHT22;2662;51.194;6.614;2024-01-30T03:34:40;8.60;99.90
5278;DHT22;2662;51.194;6.614;2024-01-30T03:37:07;8.60;99.90
5278;DHT22;2662;51.194;6.614;2024-01-30T03:39:34;8.60;99.90
5278;DHT22;2662;51.194;6.614;2024-01-30T03:42:03;8.50;99.90
5278;DHT22;2662;51.194;6.614;2024-01-30T03:44:30;8.50;99.90
5278;DHT22;2662;51.194;6.614;2024-01-30T03:46:57;8.50;99.90
5278;DHT22;2662;51.194;6.614;2024-01-30T03:49:25;8.60;99.90
5278;DHT22;2662;51.194;6.614;2024-01-30T03:51:52;8.50;99.90
5278;DHT22;2662;51.194;6.614;2024-01-30T03:54:19;8.50;99.90
5278;DHT22;2662;51.194;6.614;2024-01-30T03:56:46;8.50;99.90
5278;DHT22;2662;51.194;6.614;2024-01-30T03:59:12;8.40;99.90
5278;DHT22;2662;51.194;6.614;2024-01-30T04:01:39;8.40;99.90
5278;DHT22;2662;51.194;6.614;2024-01-30T04:04:06;8.30;99.90
5278;DHT22;2662;51.194;6.614;2024-01-30T04:06:36;8.30;99.90
5278;DHT22;2662;51.194;6.614;2024-01-30T04:09:03;8.30;99.90
5278;DHT22;2662;51.194;6.614;2024-01-30T04:11:30;8.30;99.90
5278;DHT22;2662;51.194;6.614;2024-01-30T04:13:57;8.30;99.90
5278;DHT22;2662;51.194;6.614;2024-01-30T04:16:24;8.30;99.90
5278;DHT22;2662;51.194;6.614;2024-01-30T04:18:52;8.20;99.90
5278;DHT22;2662;51.194;6.614;2024-01-30T04:21:23;8.20;99.90
5278;DHT22;2662;51.194;6.614;2024-01-30T04:23:52;8.20;99.90
5278;DHT22;2662;51.194;6.614;2024-01-30T04:26:19;8.20;99.90
5278;DHT22;2662;51.194;6.614;2024-01-30T04:28:46;8.20;99.90
5278;DHT22;2662;51.194;6.614;2024-01-30T04:31:13;8.20;99.90
5278;DHT22;2662;51.194;6.614;2024-01-30T04:33:40;8.10;99.90
5278;DHT22;2662;51.194;6.614;2024-01-30T04:36:08;8.20;99.90
5278;DHT22;2662;51.194;6.614;2024-01-30T04:38:37;8.20;99.90
5278;DHT22;2662;51.194;6.614;2024-01-30T04:41:05;8.20;99.90
5278;DHT22;2662;51.194;6.614;2024-01-30T04:43:31;8.20;99.90
5278;DHT22;2662;51.194;6.614;2024-01-30T04:45:58;8.20;99.90
5278;DHT22;2662;51.194;6.614;2024-01-30T04:48:25;8.30;99.90
5278;DHT22;2662;51.194;6.614;2024-01-30T04:50:52;8.30;99.90
5278;DHT22;2662;51.194;6.614;2024-01-30T04:53:19;8.30;99.90
5278;DHT22;2662;51.194;6.614;2024-01-30T04:55:47;8.30;99.90
5278;DHT22;2662;51.194;6.614;2024-01-30T04:58:15;8.40;99.90
5278;DHT22;2662;51.194;6.614;2024-01-30T05:00:42;8.40;99.90
5278;DHT22;2662;51.194;6.614;2024-01-30T05:03:09;8.50;99.90
5278;DHT22;2662;51.194;6.614;2024-01-30T05:05:37;8.50;99.90
5278;DHT22;2662;51.194;6.614;2024-01-30T05:08:04;8.50;99.90
5278;DHT22;2662;51.194;6.614;2024-01-30T05:10:31;8.50;99.90
5278;DHT22;2662;51.194;6.614;2024-01-30T05:12:58;8.50;99.90
5278;DHT22;2662;51.194;6.614;2024-01-30T05:15:26;8.50;99.90
5278;DHT22;2662;51.194;6.614;2024-01-30T05:17:53;8.50;99.90
5278;DHT22;2662;51.194;6.614;2024-01-30T05:20:21;8.50;99.90
5278;DHT22;2662;51.194;6.614;2024-01-30T05:22:47;8.50;99.90
5278;DHT22;2662;51.194;6.614;2024-01-30T05:25:16;8.50;99.90
5278;DHT22;2662;51.194;6.614;2024-01-30T05:27:42;8.40;99.90
5278;DHT22;2662;51.194;6.614;2024-01-30T05:30:10;8.40;99.90
5278;DHT22;2662;51.194;6.614;2024-01-30T05:32:39;8.40;99.90
5278;DHT22;2662;51.194;6.614;2024-01-30T05:35:06;8.30;99.90
5278;DHT22;2662;51.194;6.614;2024-01-30T05:37:35;8.30;99.90
5278;DHT22;2662;51.194;6.614;2024-01-30T05:40:02;8.30;99.90
5278;DHT22;2662;51.194;6.614;2024-01-30T05:42:30;8.30;99.90
5278;DHT22;2662;51.194;6.614;2024-01-30T05:44:57;8.20;99.90
5278;DHT22;2662;51.194;6.614;2024-01-30T05:47:23;8.20;99.90
5278;DHT22;2662;51.194;6.614;2024-01-30T05:49:52;8.20;99.90
5278;DHT22;2662;51.194;6.614;2024-01-30T05:52:19;8.20;99.90
5278;DHT22;2662;51.194;6.614;2024-01-30T05:54:46;8.20;99.90
5278;DHT22;2662;51.194;6.614;2024-01-30T05:57:12;8.20;99.90
5278;DHT22;2662;51.194;6.614;2024-01-30T05:59:41;8.20;99.90
5278;DHT22;2662;51.194;6.614;2024-01-30T06:02:10;8.20;99.90
5278;DHT22;2662;51.194;6.614;2024-01-30T06:04:37;8.20;99.90
5278;DHT22;2662;51.194;6.614;2024-01-30T06:07:05;8.10;99.90
5278;DHT22;2662;51.194;6.614;2024-01-30T06:09:32;8.20;99.90
5278;DHT22;2662;51.194;6.614;2024-01-30T06:11:59;8.20;99.90
5278;DHT22;2662;51.194;6.614;2024-01-30T06:14:25;8.20;99.90
5278;DHT22;2662;51.194;6.614;2024-01-30T06:16:52;8.20;99.90
5278;DHT22;2662;51.194;6.614;2024-01-30T06:19:19;8.30;99.90
5278;DHT22;2662;51.194;6.614;2024-01-30T06:21:46;8.30;99.90
5278;DHT22;2662;51.194;6.614;2024-01-30T06:24:14;8.40;99.90
5278;DHT22;2662;51.194;6.614;2024-01-30T06:26:41;8.40;99.90
5278;DHT22;2662;51.194;6.614;2024-01-30T06:29:08;8.40;99.90
5278;DHT22;2662;51.194;6.614;2024-01-30T06:31:39;8.40;99.90
5278;DHT22;2662;51.194;6.614;2024-01-30T06:34:06;8.40;99.90
5278;DHT22;2662;51.194;6.614;2024-01-30T06:36:33;8.40;99.90
5278;DHT22;2662;51.194;6.614;2024-01-30T06:39:00;8.50;99.90
5278;DHT22;2662;51.194;6.614;2024-01-30T06:41:28;8.50;99.90
5278;DHT22;2662;51.194;6.614;2024-01-30T06:43:55;8.50;99.90
5278;DHT22;2662;51.194;6.614;2024-01-30T06:46:23;8.50;99.90
5278;DHT22;2662;51.194;6.614;2024-01-30T06:48:50;8.50;99.90
5278;DHT22;2662;51.194;6.614;2024-01-30T06:51:17;8.60;99.90
5278;DHT22;2662;51.194;6.614;2024-01-30T06:53:43;8.60;99.90
5278;DHT22;2662;51.194;6.614;2024-01-30T06:56:10;8.60;99.90
5278;DHT22;2662;51.194;6.614;2024-01-30T06:58:39;8.60;99.90
5278;DHT22;2662;51.194;6.614;2024-01-30T07:01:06;8.60;99.90
5278;DHT22;2662;51.194;6.614;2024-01-30T07:03:33;8.60;99.90
5278;DHT22;2662;51.194;6.614;2024-01-30T07:06:00;8.60;99.90
5278;DHT22;2662;51.194;6.614;2024-01-30T07:08:28;8.60;99.90
5278;DHT22;2662;51.194;6.614;2024-01-30T07:10:55;8.60;99.90
5278;DHT22;2662;51.194;6.614;2024-01-30T07:13:21;8.60;99.90
5278;DHT22;2662;51.194;6.614;2024-01-30T07:15:50;8.60;99.90
5278;DHT22;2662;51.194;6.614;2024-01-30T07:18:18;8.60;99.90
5278;DHT22;2662;51.194;6.614;2024-01-30T07:20:45;8.60;99.90
5278;DHT22;2662;51.194;6.614;2024-01-30T07:23:12;8.60;99.90
5278;DHT22;2662;51.194;6.614;2024-01-30T07:25:41;8.60;99.90
5278;DHT22;2662;51.194;6.614;2024-01-30T07:28:08;8.70;99.90
5278;DHT22;2662;51.194;6.614;2024-01-30T07:30:36;8.70;99.90
5278;DHT22;2662;51.194;6.614;2024-01-30T07:33:05;8.80;99.90
5278;DHT22;2662;51.194;6.614;2024-01-30T07:35:32;8.80;99.90
5278;DHT22;2662;51.194;6.614;2024-01-30T07:38:00;8.90;99.90
5278;DHT22;2662;51.194;6.614;2024-01-30T07:40:27;8.90;99.90
5278;DHT22;2662;51.194;6.614;2024-01-30T07:42:54;8.90;99.90
5278;DHT22;2662;51.194;6.614;2024-01-30T07:45:21;8.90;99.90
5278;DHT22;2662;51.194;6.614;2024-01-30T07:47:49;9.00;99.90
5278;DHT22;2662;51.194;6.614;2024-01-30T07:50:17;9.00;99.90
5278;DHT22;2662;51.194;6.614;2024-01-30T07:52:45;9.00;99.90
5278;DHT22;2662;51.194;6.614;2024-01-30T07:55:16;9.00;99.90
5278;DHT22;2662;51.194;6.614;2024-01-30T07:57:44;9.00;99.90
5278;DHT22;2662;51.194;6.614;2024-01-30T08:00:12;9.10;99.90
5278;DHT22;2662;51.194;6.614;2024-01-30T08:02:40;9.10;99.90
5278;DHT22;2662;51.194;6.614;2024-01-30T08:05:08;9.10;99.90
5278;DHT22;2662;51.194;6.614;2024-01-30T08:07:39;9.20;99.90
5278;DHT22;2662;51.194;6.614;2024-01-30T08:10:06;9.20;99.90
5278;DHT22;2662;51.194;6.614;2024-01-30T08:12:33;9.30;99.90
5278;DHT22;2662;51.194;6.614;2024-01-30T08:15:00;9.30;99.90
5278;DHT22;2662;51.194;6.614;2024-01-30T08:17:28;9.30;99.90
5278;DHT22;2662;51.194;6.614;2024-01-30T08:19:55;9.40;99.90
5278;DHT22;2662;51.194;6.614;2024-01-30T08:22:22;9.40;99.90
5278;DHT22;2662;51.194;6.614;2024-01-30T08:24:51;9.40;99.90
5278;DHT22;2662;51.194;6.614;2024-01-30T08:27:19;9.50;99.90
5278;DHT22;2662;51.194;6.614;2024-01-30T08:29:46;9.60;99.90
5278;DHT22;2662;51.194;6.614;2024-01-30T08:32:12;9.60;99.90
5278;DHT22;2662;51.194;6.614;2024-01-30T08:34:39;9.70;99.90
5278;DHT22;2662;51.194;6.614;2024-01-30T08:37:07;9.60;99.90
5278;DHT22;2662;51.194;6.614;2024-01-30T08:39:34;9.70;99.90
5278;DHT22;2662;51.194;6.614;2024-01-30T08:42:01;9.80;99.90
5278;DHT22;2662;51.194;6.614;2024-01-30T08:44:28;9.90;99.90
5278;DHT22;2662;51.194;6.614;2024-01-30T08:46:56;9.90;99.90
5278;DHT22;2662;51.194;6.614;2024-01-30T08:49:23;10.10;99.90
5278;DHT22;2662;51.194;6.614;2024-01-30T08:51:50;10.10;99.90
5278;DHT22;2662;51.194;6.614;2024-01-30T08:54:17;10.20;99.90
5278;DHT22;2662;51.194;6.614;2024-01-30T08:56:44;10.20;99.90
5278;DHT22;2662;51.194;6.614;2024-01-30T08:59:13;10.20;99.90
5278;DHT22;2662;51.194;6.614;2024-01-30T09:01:40;10.20;99.90
5278;DHT22;2662;51.194;6.614;2024-01-30T09:04:07;10.30;99.90
5278;DHT22;2662;51.194;6.614;2024-01-30T09:06:34;10.40;99.90
5278;DHT22;2662;51.194;6.614;2024-01-30T09:09:00;10.40;99.90
5278;DHT22;2662;51.194;6.614;2024-01-30T09:11:31;10.50;99.90
5278;DHT22;2662;51.194;6.614;2024-01-30T09:13:58;10.60;99.90
5278;DHT22;2662;51.194;6.614;2024-01-30T09:16:27;10.70;99.90
5278;DHT22;2662;51.194;6.614;2024-01-30T09:18:56;10.80;99.90
5278;DHT22;2662;51.194;6.614;2024-01-30T09:21:23;10.80;99.90
5278;DHT22;2662;51.194;6.614;2024-01-30T09:23:51;11.00;99.90
5278;DHT22;2662;51.194;6.614;2024-01-30T09:26:19;11.10;99.90
5278;DHT22;2662;51.194;6.614;2024-01-30T09:28:46;11.20;99.90
5278;DHT22;2662;51.194;6.614;2024-01-30T09:31:14;11.30;99.90
5278;DHT22;2662;51.194;6.614;2024-01-30T09:33:45;11.30;99.90
5278;DHT22;2662;51.194;6.614;2024-01-30T09:36:15;11.30;99.90
5278;DHT22;2662;51.194;6.614;2024-01-30T09:38:44;11.40;99.90
5278;DHT22;2662;51.194;6.614;2024-01-30T09:41:11;11.30;99.90
5278;DHT22;2662;51.194;6.614;2024-01-30T09:43:39;11.30;99.90
5278;DHT22;2662;51.194;6.614;2024-01-30T09:46:10;11.30;99.90
5278;DHT22;2662;51.194;6.614;2024-01-30T09:48:40;11.30;99.90
5278;DHT22;2662;51.194;6.614;2024-01-30T09:51:09;11.40;99.90
5278;DHT22;2662;51.194;6.614;2024-01-30T09:53:36;11.50;99.90
5278;DHT22;2662;51.194;6.614;2024-01-30T09:56:06;11.40;99.90
5278;DHT22;2662;51.194;6.614;2024-01-30T09:58:33;11.50;99.90
5278;DHT22;2662;51.194;6.614;2024-01-30T10:01:00;11.50;99.90
5278;DHT22;2662;51.194;6.614;2024-01-30T10:03:28;11.50;99.90
5278;DHT22;2662;51.194;6.614;2024-01-30T10:05:55;11.50;99.90
5278;DHT22;2662;51.194;6.614;2024-01-30T10:08:24;11.50;99.90
5278;DHT22;2662;51.194;6.614;2024-01-30T10:10:52;11.60;99.90
5278;DHT22;2662;51.194;6.614;2024-01-30T10:13:19;11.70;99.90
5278;DHT22;2662;51.194;6.614;2024-01-30T10:15:47;11.80;99.90
5278;DHT22;2662;51.194;6.614;2024-01-30T10:18:15;11.90;99.90
5278;DHT22;2662;51.194;6.614;2024-01-30T10:20:43;11.90;99.90
5278;DHT22;2662;51.194;6.614;2024-01-30T10:23:12;12.10;99.90
5278;DHT22;2662;51.194;6.614;2024-01-30T10:25:43;12.00;99.90
5278;DHT22;2662;51.194;6.614;2024-01-30T10:28:11;12.00;99.90
5278;DHT22;2662;51.194;6.614;2024-01-30T10:30:38;12.00;99.90
5278;DHT22;2662;51.194;6.614;2024-01-30T10:33:06;12.00;99.90
5278;DHT22;2662;51.194;6.614;2024-01-30T10:35:33;12.00;99.90
5278;DHT22;2662;51.194;6.614;2024-01-30T10:38:00;11.90;99.90
5278;DHT22;2662;51.194;6.614;2024-01-30T10:40:29;12.00;99.90
5278;DHT22;2662;51.194;6.614;2024-01-30T10:43:01;12.10;99.90
5278;DHT22;2662;51.194;6.614;2024-01-30T10:45:36;12.10;99.90
5278;DHT22;2662;51.194;6.614;2024-01-30T10:48:09;12.20;99.90
5278;DHT22;2662;51.194;6.614;2024-01-30T10:50:36;12.30;99.90
5278;DHT22;2662;51.194;6.614;2024-01-30T10:53:08;12.40;99.90
5278;DHT22;2662;51.194;6.614;2024-01-30T10:55:37;12.50;99.90
5278;DHT22;2662;51.194;6.614;2024-01-30T10:58:14;12.60;99.90
5278;DHT22;2662;51.194;6.614;2024-01-30T11:00:41;12.60;99.90
5278;DHT22;2662;51.194;6.614;2024-01-30T11:03:12;12.70;99.90
5278;DHT22;2662;51.194;6.614;2024-01-30T11:05:40;12.70;99.90
5278;DHT22;2662;51.194;6.614;2024-01-30T11:08:11;12.90;99.90
5278;DHT22;2662;51.194;6.614;2024-01-30T11:10:45;13.00;99.90
5278;DHT22;2662;51.194;6.614;2024-01-30T11:13:19;13.10;99.90
5278;DHT22;2662;51.194;6.614;2024-01-30T11:15:48;13.20;99.90
5278;DHT22;2662;51.194;6.614;2024-01-30T11:18:23;13.30;99.90
5278;DHT22;2662;51.194;6.614;2024-01-30T11:20:50;13.40;99.90
5278;DHT22;2662;51.194;6.614;2024-01-30T11:23:17;13.50;99.90
5278;DHT22;2662;51.194;6.614;2024-01-30T11:25:45;13.60;99.90
5278;DHT22;2662;51.194;6.614;2024-01-30T11:28:15;13.50;99.90
5278;DHT22;2662;51.194;6.614;2024-01-30T11:30:42;13.30;99.90
5278;DHT22;2662;51.194;6.614;2024-01-30T11:33:10;13.40;99.90
5278;DHT22;2662;51.194;6.614;2024-01-30T11:35:39;13.30;99.90
5278;DHT22;2662;51.194;6.614;2024-01-30T11:38:07;13.40;99.90
5278;DHT22;2662;51.194;6.614;2024-01-30T11:40:35;13.40;99.90
5278;DHT22;2662;51.194;6.614;2024-01-30T11:43:04;13.50;99.90
5278;DHT22;2662;51.194;6.614;2024-01-30T11:45:33;13.60;99.90
5278;DHT22;2662;51.194;6.614;2024-01-30T11:48:00;13.70;99.90
5278;DHT22;2662;51.194;6.614;2024-01-30T11:50:29;13.80;99.90
5278;DHT22;2662;51.194;6.614;2024-01-30T11:52:58;13.80;99.90
5278;DHT22;2662;51.194;6.614;2024-01-30T11:55:26;13.80;99.90
5278;DHT22;2662;51.194;6.614;2024-01-30T11:57:55;13.80;99.90
5278;DHT22;2662;51.194;6.614;2024-01-30T12:00:22;13.80;99.90
5278;DHT22;2662;51.194;6.614;2024-01-30T12:02:52;13.80;99.90
5278;DHT22;2662;51.194;6.614;2024-01-30T12:05:22;13.80;99.90
5278;DHT22;2662;51.194;6.614;2024-01-30T12:07:49;14.00;99.90
5278;DHT22;2662;51.194;6.614;2024-01-30T12:10:17;14.00;99.90
5278;DHT22;2662;51.194;6.614;2024-01-30T12:12:46;14.10;99.90
5278;DHT22;2662;51.194;6.614;2024-01-30T12:15:14;14.20;99.90
5278;DHT22;2662;51.194;6.614;2024-01-30T12:17:41;14.30;99.90
5278;DHT22;2662;51.194;6.614;2024-01-30T12:20:11;14.40;99.90
5278;DHT22;2662;51.194;6.614;2024-01-30T12:22:42;14.50;99.90
5278;DHT22;2662;51.194;6.614;2024-01-30T12:25:10;14.60;99.90
5278;DHT22;2662;51.194;6.614;2024-01-30T12:27:39;14.60;99.90
5278;DHT22;2662;51.194;6.614;2024-01-30T12:30:13;14.60;99.90
5278;DHT22;2662;51.194;6.614;2024-01-30T12:32:40;14.50;99.90
5278;DHT22;2662;51.194;6.614;2024-01-30T12:35:10;14.50;99.90
5278;DHT22;2662;51.194;6.614;2024-01-30T12:37:38;14.50;99.90
5278;DHT22;2662;51.194;6.614;2024-01-30T12:40:06;14.40;99.90
5278;DHT22;2662;51.194;6.614;2024-01-30T12:42:33;14.40;99.90
5278;DHT22;2662;51.194;6.614;2024-01-30T12:45:02;14.40;99.90
5278;DHT22;2662;51.194;6.614;2024-01-30T12:47:29;14.40;99.90
5278;DHT22;2662;51.194;6.614;2024-01-30T12:49:57;14.40;99.90
5278;DHT22;2662;51.194;6.614;2024-01-30T12:52:28;14.40;99.90
5278;DHT22;2662;51.194;6.614;2024-01-30T12:54:56;14.30;99.90
5278;DHT22;2662;51.194;6.614;2024-01-30T12:57:22;14.10;99.90
5278;DHT22;2662;51.194;6.614;2024-01-30T12:59:49;14.10;99.90
5278;DHT22;2662;51.194;6.614;2024-01-30T13:02:18;14.00;99.90
5278;DHT22;2662;51.194;6.614;2024-01-30T13:04:45;13.90;99.90
5278;DHT22;2662;51.194;6.614;2024-01-30T13:07:12;13.80;99.90
5278;DHT22;2662;51.194;6.614;2024-01-30T13:09:40;13.90;99.90
5278;DHT22;2662;51.194;6.614;2024-01-30T13:12:07;13.90;99.90
5278;DHT22;2662;51.194;6.614;2024-01-30T13:14:35;13.80;99.90
5278;DHT22;2662;51.194;6.614;2024-01-30T13:17:03;13.90;99.90
5278;DHT22;2662;51.194;6.614;2024-01-30T13:19:30;13.90;99.90
5278;DHT22;2662;51.194;6.614;2024-01-30T13:21:58;13.90;99.90
5278;DHT22;2662;51.194;6.614;2024-01-30T13:24:28;13.90;99.90
5278;DHT22;2662;51.194;6.614;2024-01-30T13:26:59;13.80;99.90
5278;DHT22;2662;51.194;6.614;2024-01-30T13:29:31;13.90;99.90
5278;DHT22;2662;51.194;6.614;2024-01-30T13:31:58;13.90;99.90
5278;DHT22;2662;51.194;6.614;2024-01-30T13:34:24;13.80;99.90
5278;DHT22;2662;51.194;6.614;2024-01-30T13:36:51;13.80;99.90
5278;DHT22;2662;51.194;6.614;2024-01-30T13:39:18;13.90;99.90
5278;DHT22;2662;51.194;6.614;2024-01-30T13:41:46;14.00;99.90
5278;DHT22;2662;51.194;6.614;2024-01-30T13:44:15;14.10;99.90
5278;DHT22;2662;51.194;6.614;2024-01-30T13:46:43;14.20;99.90
5278;DHT22;2662;51.194;6.614;2024-01-30T13:49:10;14.20;99.90
5278;DHT22;2662;51.194;6.614;2024-01-30T13:51:40;14.20;99.90
5278;DHT22;2662;51.194;6.614;2024-01-30T13:54:06;14.20;99.90
5278;DHT22;2662;51.194;6.614;2024-01-30T13:56:35;14.30;99.90
5278;DHT22;2662;51.194;6.614;2024-01-30T13:59:02;14.30;99.90
5278;DHT22;2662;51.194;6.614;2024-01-30T14:01:32;14.40;99.90
5278;DHT22;2662;51.194;6.614;2024-01-30T14:03:59;14.50;99.90
5278;DHT22;2662;51.194;6.614;2024-01-30T14:06:26;14.50;99.90
5278;DHT22;2662;51.194;6.614;2024-01-30T14:08:53;14.50;99.90
5278;DHT22;2662;51.194;6.614;2024-01-30T14:11:20;14.40;99.90
5278;DHT22;2662;51.194;6.614;2024-01-30T14:13:48;14.40;99.90
5278;DHT22;2662;51.194;6.614;2024-01-30T14:16:18;14.50;99.90
5278;DHT22;2662;51.194;6.614;2024-01-30T14:18:47;14.50;99.90
5278;DHT22;2662;51.194;6.614;2024-01-30T14:21:14;14.60;99.90
5278;DHT22;2662;51.194;6.614;2024-01-30T14:23:41;14.70;99.90
5278;DHT22;2662;51.194;6.614;2024-01-30T14:26:08;14.90;99.90
5278;DHT22;2662;51.194;6.614;2024-01-30T14:28:36;14.90;99.90
5278;DHT22;2662;51.194;6.614;2024-01-30T14:31:03;14.90;99.90
5278;DHT22;2662;51.194;6.614;2024-01-30T14:33:30;14.80;99.90
5278;DHT22;2662;51.194;6.614;2024-01-30T14:35:59;14.70;99.90
5278;DHT22;2662;51.194;6.614;2024-01-30T14:38:25;14.60;99.90
5278;DHT22;2662;51.194;6.614;2024-01-30T14:40:55;14.50;99.90
5278;DHT22;2662;51.194;6.614;2024-01-30T14:43:22;14.40;99.90
5278;DHT22;2662;51.194;6.614;2024-01-30T14:45:49;14.40;99.90
5278;DHT22;2662;51.194;6.614;2024-01-30T14:48:17;14.20;99.90
5278;DHT22;2662;51.194;6.614;2024-01-30T14:50:45;14.20;99.90
5278;DHT22;2662;51.194;6.614;2024-01-30T14:53:13;14.20;99.90
5278;DHT22;2662;51.194;6.614;2024-01-30T14:55:40;14.10;99.90
5278;DHT22;2662;51.194;6.614;2024-01-30T14:58:07;14.00;99.90
5278;DHT22;2662;51.194;6.614;2024-01-30T15:00:34;13.70;99.90
5278;DHT22;2662;51.194;6.614;2024-01-30T15:03:04;13.60;99.90
5278;DHT22;2662;51.194;6.614;2024-01-30T15:05:31;13.50;99.90
5278;DHT22;2662;51.194;6.614;2024-01-30T15:07:58;13.40;99.90
5278;DHT22;2662;51.194;6.614;2024-01-30T15:10:26;13.40;99.90
5278;DHT22;2662;51.194;6.614;2024-01-30T15:12:53;13.30;99.90
5278;DHT22;2662;51.194;6.614;2024-01-30T15:15:20;13.30;99.90
5278;DHT22;2662;51.194;6.614;2024-01-30T15:17:47;13.40;99.90
5278;DHT22;2662;51.194;6.614;2024-01-30T15:20:14;13.40;99.90
5278;DHT22;2662;51.194;6.614;2024-01-30T15:22:43;13.30;99.90
5278;DHT22;2662;51.194;6.614;2024-01-30T15:25:10;13.30;99.90
5278;DHT22;2662;51.194;6.614;2024-01-30T15:27:39;13.30;99.90
5278;DHT22;2662;51.194;6.614;2024-01-30T15:30:07;13.30;99.90
5278;DHT22;2662;51.194;6.614;2024-01-30T15:32:37;13.30;99.90
5278;DHT22;2662;51.194;6.614;2024-01-30T15:35:05;13.30;99.90
5278;DHT22;2662;51.194;6.614;2024-01-30T15:37:34;13.30;99.90
5278;DHT22;2662;51.194;6.614;2024-01-30T15:40:01;13.20;99.90
5278;DHT22;2662;51.194;6.614;2024-01-30T15:42:31;13.20;99.90
5278;DHT22;2662;51.194;6.614;2024-01-30T15:44:59;13.20;99.90
5278;DHT22;2662;51.194;6.614;2024-01-30T15:47:29;13.20;99.90
5278;DHT22;2662;51.194;6.614;2024-01-30T15:49:56;13.20;99.90
5278;DHT22;2662;51.194;6.614;2024-01-30T15:52:23;13.10;99.90
5278;DHT22;2662;51.194;6.614;2024-01-30T15:54:50;13.00;99.90
5278;DHT22;2662;51.194;6.614;2024-01-30T15:57:18;12.90;99.90
5278;DHT22;2662;51.194;6.614;2024-01-30T15:59:45;12.80;99.90
5278;DHT22;2662;51.194;6.614;2024-01-30T16:02:14;12.70;99.90
5278;DHT22;2662;51.194;6.614;2024-01-30T16:04:41;12.60;99.90
5278;DHT22;2662;51.194;6.614;2024-01-30T16:07:07;12.60;99.90
5278;DHT22;2662;51.194;6.614;2024-01-30T16:09:34;12.50;99.90
5278;DHT22;2662;51.194;6.614;2024-01-30T16:12:03;12.40;99.90